Time;durP1;ratioP1;P1;durP2;ratioP2;P2;SDS_P1;SDS_P2;PMS_P1;PMS_P2;Temp;Humidity;BMP_temperature;BMP_pressure;BME280_temperature;BME280_humidity;BME280_pressure;Samples;Min_cycle;Max_cycle;Signal;HPM_P1;HPM_P2
2023/05/18 00:00:48;;;;;;;0.95;0.10;;;17.80;96.70;;;;;;4959926;28;20117;-71
2023/05/18 00:03:16;;;;;;;1.85;0.30;;;17.80;96.70;;;;;;4982808;28;20049;-71
2023/05/18 00:05:44;;;;;;;0.55;0.10;;;17.80;96.70;;;;;;4965877;28;20664;-72
2023/05/18 00:08:12;;;;;;;0.22;0.10;;;17.70;96.70;;;;;;4965897;28;20050;-72
2023/05/18 00:10:40;;;;;;;0.40;0.20;;;17.70;96.70;;;;;;4949838;28;20049;-72
2023/05/18 00:13:26;;;;;;;1.05;0.05;;;17.70;96.70;;;;;;4948133;28;20062;-72
2023/05/18 00:20:05;;;;;;;1.10;0.30;;;17.70;96.70;;;;;;4973951;28;20048;-72
2023/05/18 00:22:34;;;;;;;0.90;0.20;;;17.70;96.70;;;;;;4965513;28;20065;-71
2023/05/18 00:25:06;;;;;;;2.08;0.30;;;17.70;96.70;;;;;;4968371;28;20453;-71
2023/05/18 00:27:35;;;;;;;0.80;0.15;;;17.70;96.70;;;;;;4973455;28;20154;-72
2023/05/18 00:30:05;;;;;;;1.00;0.10;;;17.70;96.70;;;;;;4959595;28;20689;-71
2023/05/18 00:32:36;;;;;;;1.58;0.40;;;17.70;96.70;;;;;;4965564;28;20412;-72
2023/05/18 00:35:24;;;;;;;1.95;0.20;;;17.70;96.70;;;;;;4966720;28;20086;-72
2023/05/18 00:37:52;;;;;;;0.52;0.10;;;17.70;96.70;;;;;;4955448;28;20066;-71
2023/05/18 00:40:25;;;;;;;0.75;0.20;;;17.70;96.70;;;;;;4966579;28;20046;-71
2023/05/18 00:42:55;;;;;;;0.73;0.17;;;17.70;96.70;;;;;;4950525;28;20034;-72
2023/05/18 00:45:23;;;;;;;0.95;0.10;;;17.70;96.70;;;;;;4963920;28;20038;-71
2023/05/18 00:47:51;;;;;;;1.25;0.20;;;17.70;96.70;;;;;;4947606;28;20047;-73
2023/05/18 00:50:19;;;;;;;1.10;0.10;;;17.70;96.70;;;;;;4930674;28;20050;-72
2023/05/18 00:52:51;;;;;;;1.83;0.30;;;17.60;96.70;;;;;;4964316;28;20047;-72
2023/05/18 00:55:19;;;;;;;0.70;0.20;;;17.60;96.70;;;;;;4950423;28;20042;-71
2023/05/18 00:57:47;;;;;;;0.43;0.10;;;17.60;96.70;;;;;;4982163;28;20042;-73
2023/05/18 01:00:16;;;;;;;0.70;0.10;;;17.60;96.70;;;;;;4975920;28;20141;-71
2023/05/18 01:02:44;;;;;;;1.05;0.28;;;17.50;96.70;;;;;;4963359;28;20524;-71
2023/05/18 01:05:12;;;;;;;2.72;0.20;;;17.50;96.70;;;;;;4947464;28;20105;-72
2023/05/18 01:07:42;;;;;;;1.08;0.28;;;17.50;96.70;;;;;;4933603;28;20051;-71
2023/05/18 01:10:17;;;;;;;1.52;0.22;;;17.40;96.70;;;;;;4954772;28;20056;-72
2023/05/18 01:12:49;;;;;;;3.95;0.50;;;17.30;96.70;;;;;;4948813;28;20109;-71
2023/05/18 01:15:21;;;;;;;1.17;0.20;;;17.30;96.70;;;;;;4963811;28;20525;-71
2023/05/18 01:22:07;;;;;;;0.70;0.20;;;17.30;96.70;;;;;;4968559;28;20116;-71
2023/05/18 01:24:41;;;;;;;1.35;0.28;;;17.30;96.70;;;;;;4972594;28;20415;-71
2023/05/18 01:27:15;;;;;;;1.52;0.40;;;17.30;96.70;;;;;;4927704;29;20062;-70
2023/05/18 01:29:45;;;;;;;0.95;0.30;;;17.20;96.70;;;;;;4952760;28;20145;-70
2023/05/18 01:32:19;;;;;;;1.75;0.30;;;17.30;96.70;;;;;;4963367;28;20062;-71
2023/05/18 01:34:50;;;;;;;1.00;0.10;;;17.30;96.70;;;;;;4951814;28;20686;-71
2023/05/18 01:37:18;;;;;;;0.70;0.20;;;17.30;96.70;;;;;;4943626;28;20122;-71
2023/05/18 01:39:50;;;;;;;1.25;0.10;;;17.30;96.70;;;;;;4945129;28;20050;-71
2023/05/18 01:42:23;;;;;;;1.67;0.20;;;17.20;96.70;;;;;;4943051;28;20075;-71
2023/05/18 01:44:57;;;;;;;6.45;1.10;;;17.20;96.70;;;;;;4958370;28;20075;-71
2023/05/18 01:47:29;;;;;;;0.40;0.15;;;17.10;96.70;;;;;;4944748;28;20101;-71
2023/05/18 01:50:08;;;;;;;0.93;0.20;;;17.10;96.70;;;;;;4943914;28;20078;-71
2023/05/18 01:52:41;;;;;;;3.08;0.22;;;17.20;96.70;;;;;;4944591;28;20043;-71
2023/05/18 01:55:11;;;;;;;1.45;0.20;;;17.20;96.70;;;;;;4958917;28;20054;-71
2023/05/18 01:57:45;;;;;;;1.60;0.28;;;17.20;96.70;;;;;;4944443;28;20074;-71
2023/05/18 02:00:16;;;;;;;2.22;0.30;;;17.20;96.70;;;;;;4950549;28;20047;-71
2023/05/18 02:02:46;;;;;;;1.17;0.17;;;17.20;96.70;;;;;;4945711;28;20843;-71
2023/05/18 02:05:17;;;;;;;2.20;0.20;;;17.20;96.70;;;;;;4936140;28;20055;-71
2023/05/18 02:07:47;;;;;;;1.73;0.20;;;17.10;96.70;;;;;;4943141;28;20051;-71
2023/05/18 02:10:15;;;;;;;1.27;0.20;;;17.00;96.70;;;;;;4959117;28;20497;-71
2023/05/18 02:12:48;;;;;;;5.30;0.40;;;17.10;96.70;;;;;;4947143;28;20532;-71
2023/05/18 02:15:16;;;;;;;0.80;0.10;;;17.10;96.70;;;;;;4958882;28;20422;-71
2023/05/18 02:17:44;;;;;;;1.42;0.20;;;17.10;96.70;;;;;;4945663;28;20039;-71
2023/05/18 02:20:12;;;;;;;1.48;0.20;;;17.10;96.70;;;;;;4945518;28;20055;-70
2023/05/18 02:22:40;;;;;;;1.83;0.32;;;17.10;96.70;;;;;;4944620;28;20055;-71
2023/05/18 02:25:09;;;;;;;1.75;0.30;;;17.10;96.70;;;;;;4958781;28;20058;-71
2023/05/18 02:27:37;;;;;;;0.52;0.20;;;17.10;96.70;;;;;;4964426;28;20768;-71
2023/05/18 02:30:08;;;;;;;1.52;0.30;;;17.10;96.70;;;;;;4954322;28;20053;-71
2023/05/18 02:32:41;;;;;;;1.80;0.30;;;17.00;96.70;;;;;;4952788;28;20469;-71
2023/05/18 02:35:10;;;;;;;1.10;0.10;;;16.90;96.70;;;;;;4968461;28;20043;-70
2023/05/18 02:37:42;;;;;;;2.00;0.20;;;16.90;96.70;;;;;;4947838;28;20035;-70
2023/05/18 02:40:12;;;;;;;1.52;0.43;;;16.90;96.70;;;;;;4948275;28;20110;-71
2023/05/18 02:42:41;;;;;;;1.13;0.10;;;16.80;96.70;;;;;;4971339;28;20085;-71
2023/05/18 02:45:11;;;;;;;1.40;0.20;;;16.80;96.70;;;;;;4930790;28;20152;-71
2023/05/18 02:47:44;;;;;;;1.42;0.20;;;16.80;96.70;;;;;;4947781;28;20043;-71
2023/05/18 02:50:13;;;;;;;0.85;0.20;;;16.80;96.70;;;;;;4956093;28;20047;-70
2023/05/18 02:52:48;;;;;;;1.45;0.22;;;16.90;96.70;;;;;;4959740;28;20133;-71
2023/05/18 02:55:16;;;;;;;1.27;0.20;;;16.90;96.70;;;;;;4930224;28;20199;-70
2023/05/18 02:58:07;;;;;;;1.30;0.20;;;17.00;96.70;;;;;;4957678;28;20130;-71
2023/05/18 03:00:55;;;;;;;1.55;0.22;;;17.10;96.70;;;;;;4963953;28;20046;-70
2023/05/18 03:03:24;;;;;;;0.82;0.20;;;17.10;96.70;;;;;;4947136;28;20519;-71
2023/05/18 03:05:52;;;;;;;0.45;0.05;;;17.10;96.70;;;;;;4970734;28;20438;-70
2023/05/18 03:08:25;;;;;;;1.02;0.10;;;17.10;96.70;;;;;;4944152;28;20378;-70
2023/05/18 03:10:54;;;;;;;0.73;0.10;;;17.10;96.70;;;;;;4944881;28;20051;-70
2023/05/18 03:13:22;;;;;;;2.25;0.10;;;17.20;96.70;;;;;;4939984;28;20066;-70
2023/05/18 03:15:50;;;;;;;0.50;0.20;;;17.20;96.70;;;;;;4945669;28;20051;-71
2023/05/18 03:18:21;;;;;;;2.13;0.10;;;17.10;96.70;;;;;;4948911;28;20051;-70
2023/05/18 03:20:50;;;;;;;0.47;0.10;;;17.20;96.70;;;;;;4955356;28;20074;-70
2023/05/18 03:23:25;;;;;;;0.63;0.10;;;17.20;96.70;;;;;;4977919;28;20073;-70
2023/05/18 03:25:54;;;;;;;1.45;0.15;;;17.20;96.70;;;;;;4937650;28;20051;-71
2023/05/18 03:31:43;;;;;;;0.95;0.10;;;17.10;96.70;;;;;;4935034;28;20078;-70
2023/05/18 03:34:16;;;;;;;1.08;0.25;;;17.10;96.70;;;;;;4960346;28;20054;-70
2023/05/18 03:36:46;;;;;;;1.17;0.10;;;17.10;96.70;;;;;;4949624;28;20075;-71
2023/05/18 03:39:14;;;;;;;0.73;0.20;;;17.10;96.70;;;;;;4960628;28;20622;-71
2023/05/18 03:41:43;;;;;;;0.68;0.10;;;17.20;96.70;;;;;;4945649;28;20047;-70
2023/05/18 03:44:11;;;;;;;2.08;0.20;;;17.10;96.70;;;;;;4961326;28;20047;-71
2023/05/18 03:46:39;;;;;;;0.77;0.20;;;17.10;96.70;;;;;;4961194;28;20058;-70
2023/05/18 03:49:08;;;;;;;1.10;0.20;;;17.20;96.70;;;;;;4960454;28;20043;-71
2023/05/18 03:51:42;;;;;;;2.30;0.40;;;17.10;96.70;;;;;;4964626;28;20532;-71
2023/05/18 03:54:10;;;;;;;1.55;0.10;;;17.20;96.70;;;;;;4961810;28;20047;-72
2023/05/18 03:56:38;;;;;;;1.10;0.05;;;17.20;96.70;;;;;;4942890;28;20054;-71
2023/05/18 04:03:15;;;;;;;0.57;0.15;;;17.00;96.70;;;;;;4886784;29;20109;-70
2023/05/18 04:06:09;;;;;;;1.65;0.20;;;17.00;96.70;;;;;;4881645;29;20056;-70
2023/05/18 04:08:40;;;;;;;1.17;0.20;;;17.00;96.70;;;;;;4867535;29;20048;-72
2023/05/18 04:11:09;;;;;;;0.63;0.10;;;17.10;96.70;;;;;;4870735;29;20132;-71
2023/05/18 04:13:38;;;;;;;1.15;0.20;;;17.10;96.70;;;;;;4871116;29;20055;-71
2023/05/18 04:16:07;;;;;;;3.42;0.20;;;17.00;96.70;;;;;;4886303;29;20139;-70
2023/05/18 04:18:36;;;;;;;0.73;0.10;;;17.00;96.70;;;;;;4886522;29;20063;-71
2023/05/18 04:21:05;;;;;;;1.35;0.20;;;17.10;96.70;;;;;;4886659;29;20060;-71
2023/05/18 04:23:37;;;;;;;0.80;0.20;;;17.10;96.70;;;;;;4880635;29;20060;-71
2023/05/18 04:26:10;;;;;;;0.90;0.10;;;17.20;96.70;;;;;;4882692;29;20063;-71
2023/05/18 04:28:42;;;;;;;1.15;0.25;;;17.20;96.70;;;;;;4892097;29;20055;-71
2023/05/18 04:31:13;;;;;;;0.65;0.10;;;17.20;96.70;;;;;;4891720;29;20072;-71
2023/05/18 04:33:45;;;;;;;1.08;0.22;;;17.20;96.70;;;;;;4873902;29;20048;-71
2023/05/18 04:36:18;;;;;;;0.88;0.17;;;17.10;96.70;;;;;;4907062;29;20059;-70
2023/05/18 04:39:02;;;;;;;1.40;0.28;;;17.20;96.70;;;;;;4911838;29;20062;-70
2023/05/18 04:41:33;;;;;;;0.80;0.17;;;17.20;96.70;;;;;;4924055;29;20040;-70
2023/05/18 04:44:02;;;;;;;1.13;0.22;;;17.30;96.70;;;;;;4925189;29;20048;-70
2023/05/18 04:46:32;;;;;;;1.55;0.20;;;17.30;96.70;;;;;;4943200;29;21455;-70
2023/05/18 04:49:02;;;;;;;2.25;0.30;;;17.40;96.70;;;;;;4930564;29;20067;-71
2023/05/18 04:51:35;;;;;;;1.05;0.20;;;17.40;96.70;;;;;;4935998;29;20075;-71
2023/05/18 04:54:05;;;;;;;1.88;0.40;;;17.40;96.70;;;;;;4924488;29;20047;-71
2023/05/18 04:56:34;;;;;;;1.13;0.22;;;17.40;96.70;;;;;;4926250;29;20047;-71
2023/05/18 04:59:03;;;;;;;1.75;0.30;;;17.40;96.70;;;;;;4919356;29;20149;-72
2023/05/18 05:01:31;;;;;;;0.80;0.15;;;17.40;96.70;;;;;;4931340;29;20048;-71
2023/05/18 05:03:59;;;;;;;1.38;0.40;;;17.40;96.70;;;;;;4948963;28;20047;-71
2023/05/18 05:06:27;;;;;;;4.13;0.40;;;17.50;96.70;;;;;;4921522;29;20039;-71
2023/05/18 05:08:55;;;;;;;1.10;0.17;;;17.50;96.70;;;;;;4924125;29;20046;-71
2023/05/18 05:11:23;;;;;;;0.88;0.20;;;17.40;96.70;;;;;;4922770;29;20147;-71
2023/05/18 05:13:53;;;;;;;2.03;0.57;;;17.40;96.70;;;;;;4940838;28;20150;-71
2023/05/18 05:16:21;;;;;;;0.80;0.10;;;17.30;96.70;;;;;;4926603;29;20142;-72
2023/05/18 05:18:50;;;;;;;0.20;0.20;;;17.40;96.70;;;;;;4928342;29;20074;-71
2023/05/18 05:21:18;;;;;;;2.20;0.20;;;17.40;96.70;;;;;;4910592;29;20131;-71
2023/05/18 05:23:46;;;;;;;0.77;0.20;;;17.50;96.70;;;;;;4940938;28;20055;-71
2023/05/18 05:26:15;;;;;;;1.27;0.13;;;17.60;96.70;;;;;;4932232;28;20047;-70
2023/05/18 05:28:45;;;;;;;0.77;0.20;;;17.70;96.70;;;;;;4928102;29;20051;-71
2023/05/18 05:31:15;;;;;;;0.28;0.10;;;17.80;96.70;;;;;;4957785;28;20075;-71
2023/05/18 05:33:45;;;;;;;2.88;0.60;;;17.90;96.70;;;;;;4942761;28;20050;-71
2023/05/18 05:36:13;;;;;;;3.08;0.55;;;17.90;96.70;;;;;;4957891;28;20055;-71
2023/05/18 05:38:42;;;;;;;0.98;0.20;;;18.00;96.70;;;;;;4960306;28;20052;-71
2023/05/18 05:41:11;;;;;;;1.83;0.20;;;18.00;96.70;;;;;;4940674;28;20051;-71
2023/05/18 05:43:40;;;;;;;0.65;0.25;;;18.10;96.70;;;;;;4946342;28;20058;-71
2023/05/18 05:46:08;;;;;;;6.60;0.30;;;18.10;96.70;;;;;;4956741;28;20043;-71
2023/05/18 05:48:38;;;;;;;1.70;0.25;;;18.20;96.70;;;;;;4949899;28;20055;-71
2023/05/18 05:51:07;;;;;;;0.93;0.10;;;18.20;96.70;;;;;;4945671;28;20058;-72
2023/05/18 05:53:36;;;;;;;0.80;0.13;;;18.20;96.70;;;;;;4959536;28;20546;-72
2023/05/18 05:56:07;;;;;;;0.50;0.20;;;18.30;96.70;;;;;;4944064;28;20050;-72
2023/05/18 05:58:38;;;;;;;0.30;0.20;;;18.40;96.70;;;;;;4941250;28;20138;-72
2023/05/18 06:01:07;;;;;;;0.40;0.10;;;18.40;96.70;;;;;;4946671;28;20047;-72
2023/05/18 06:03:37;;;;;;;1.10;0.10;;;18.40;96.70;;;;;;4958350;28;20382;-71
2023/05/18 06:06:07;;;;;;;0.40;0.10;;;18.50;96.70;;;;;;4960158;28;20058;-72
2023/05/18 06:08:35;;;;;;;0.80;0.10;;;18.50;96.70;;;;;;4944515;28;20051;-70
2023/05/18 06:11:03;;;;;;;0.88;0.20;;;18.60;96.70;;;;;;4972188;28;20051;-71
2023/05/18 06:13:32;;;;;;;0.82;0.20;;;18.60;96.70;;;;;;4954916;28;20046;-72
2023/05/18 06:16:01;;;;;;;1.63;0.45;;;18.60;96.70;;;;;;4946774;28;20138;-70
2023/05/18 06:18:30;;;;;;;2.35;0.30;;;18.60;96.70;;;;;;4953421;28;20114;-71
2023/05/18 06:21:04;;;;;;;2.63;0.20;;;18.60;96.70;;;;;;4951908;28;20162;-71
2023/05/18 06:23:33;;;;;;;0.88;0.25;;;18.60;96.70;;;;;;4930301;29;20187;-70
2023/05/18 06:26:01;;;;;;;0.38;0.20;;;18.60;96.70;;;;;;4954211;28;20061;-70
2023/05/18 06:28:47;;;;;;;0.73;0.10;;;18.60;96.70;;;;;;4949129;28;20051;-71
2023/05/18 06:31:32;;;;;;;0.52;0.20;;;18.50;96.70;;;;;;4949582;28;20046;-71
2023/05/18 06:34:09;;;;;;;1.75;0.43;;;18.50;96.70;;;;;;4942510;28;20077;-71
2023/05/18 06:36:39;;;;;;;0.57;0.10;;;18.40;96.70;;;;;;4948805;28;20125;-72
2023/05/18 06:39:07;;;;;;;0.85;0.30;;;18.40;96.70;;;;;;4957848;28;20051;-70
2023/05/18 06:41:36;;;;;;;1.02;0.30;;;18.30;96.70;;;;;;4967558;28;20106;-72
2023/05/18 06:44:05;;;;;;;0.73;0.40;;;18.30;96.70;;;;;;4966861;28;20564;-72
2023/05/18 06:46:35;;;;;;;0.70;0.20;;;18.20;96.70;;;;;;4946284;28;20039;-71
2023/05/18 06:49:18;;;;;;;0.98;0.20;;;18.20;96.70;;;;;;4959752;28;20046;-70
2023/05/18 06:51:48;;;;;;;1.92;0.28;;;18.30;96.70;;;;;;4978073;28;20101;-71
2023/05/18 06:54:16;;;;;;;0.15;0.13;;;18.30;96.70;;;;;;4949038;28;20166;-71
2023/05/18 06:56:46;;;;;;;1.55;0.20;;;18.40;96.70;;;;;;4972899;28;20081;-71
2023/05/18 06:59:15;;;;;;;0.82;0.22;;;18.40;96.70;;;;;;4975761;28;20055;-70
2023/05/18 07:01:44;;;;;;;0.90;0.20;;;18.50;96.70;;;;;;4972530;28;20062;-70
2023/05/18 07:04:26;;;;;;;0.93;0.10;;;18.50;96.70;;;;;;4937702;28;20081;-71
2023/05/18 07:07:20;;;;;;;1.27;0.15;;;18.60;96.70;;;;;;4893642;29;20356;-71
2023/05/18 07:09:48;;;;;;;0.40;0.20;;;18.60;96.70;;;;;;4917379;29;20048;-71
2023/05/18 07:12:16;;;;;;;0.50;0.20;;;18.70;96.70;;;;;;4905715;29;20048;-71
2023/05/18 07:14:45;;;;;;;1.30;0.30;;;18.70;96.70;;;;;;4902590;29;20048;-72
2023/05/18 07:17:13;;;;;;;0.50;0.20;;;18.80;96.70;;;;;;4907774;29;20067;-71
2023/05/18 07:19:41;;;;;;;2.30;0.40;;;18.80;96.70;;;;;;4915919;29;20062;-71
2023/05/18 07:22:10;;;;;;;1.20;0.20;;;18.90;96.70;;;;;;4922956;29;20096;-71
2023/05/18 07:24:40;;;;;;;0.77;0.35;;;18.90;96.70;;;;;;4922864;29;20155;-70
2023/05/18 07:27:08;;;;;;;0.73;0.20;;;19.00;96.70;;;;;;4923472;29;20059;-72
2023/05/18 07:29:36;;;;;;;0.38;0.20;;;19.00;96.70;;;;;;4909394;29;20055;-71
2023/05/18 07:32:05;;;;;;;1.38;0.20;;;19.10;96.70;;;;;;4915846;29;20068;-71
2023/05/18 07:34:33;;;;;;;1.73;0.30;;;19.10;96.70;;;;;;4915677;29;20039;-71
2023/05/18 07:37:02;;;;;;;2.70;0.20;;;19.20;96.70;;;;;;4897447;29;20553;-71
2023/05/18 07:39:30;;;;;;;0.60;0.30;;;19.30;96.70;;;;;;4955309;28;20544;-71
2023/05/18 07:42:00;;;;;;;0.75;0.25;;;19.40;96.70;;;;;;4946938;28;20054;-71
2023/05/18 07:44:29;;;;;;;1.30;0.43;;;19.50;96.70;;;;;;4946894;28;20051;-71
2023/05/18 07:46:57;;;;;;;1.20;0.20;;;19.50;96.70;;;;;;4961438;28;20058;-71
2023/05/18 07:49:25;;;;;;;1.40;0.20;;;19.50;96.70;;;;;;4951248;28;20039;-71
2023/05/18 07:51:53;;;;;;;1.77;0.20;;;19.50;96.70;;;;;;4950524;28;20046;-71
2023/05/18 07:54:22;;;;;;;0.40;0.30;;;19.50;96.70;;;;;;4954502;28;20051;-72
2023/05/18 07:56:50;;;;;;;2.83;0.38;;;19.50;96.70;;;;;;4954632;28;20596;-71
2023/05/18 07:59:20;;;;;;;0.77;0.20;;;19.60;96.70;;;;;;4945616;28;20059;-72
2023/05/18 08:01:48;;;;;;;3.47;0.70;;;19.60;96.70;;;;;;4961955;28;20714;-71
2023/05/18 08:04:16;;;;;;;1.27;0.30;;;19.70;96.70;;;;;;4951269;28;20533;-71
2023/05/18 08:06:45;;;;;;;5.85;0.95;;;19.70;96.70;;;;;;4960966;28;20078;-70
2023/05/18 08:09:13;;;;;;;1.77;0.90;;;19.70;96.70;;;;;;4928365;28;20065;-72
2023/05/18 08:11:43;;;;;;;3.25;0.60;;;19.70;96.70;;;;;;4946513;28;20130;-71
2023/05/18 08:14:12;;;;;;;4.63;0.47;;;19.70;96.70;;;;;;4952832;28;20051;-71
2023/05/18 08:16:41;;;;;;;2.47;0.50;;;19.70;96.70;;;;;;4960964;28;20044;-71
2023/05/18 08:19:10;;;;;;;2.25;0.40;;;19.80;96.70;;;;;;4945223;28;20051;-71
2023/05/18 08:21:38;;;;;;;1.48;0.30;;;19.80;96.70;;;;;;4961134;28;20046;-71
2023/05/18 08:24:08;;;;;;;2.00;0.50;;;19.90;96.70;;;;;;4962478;28;20058;-73
2023/05/18 08:26:36;;;;;;;2.13;0.40;;;20.10;96.70;;;;;;4967413;28;20054;-71
2023/05/18 08:29:08;;;;;;;1.73;0.30;;;20.20;96.70;;;;;;4968473;28;20148;-72
2023/05/18 08:31:38;;;;;;;0.63;0.30;;;20.20;96.70;;;;;;4969968;28;20054;-71
2023/05/18 08:34:08;;;;;;;0.85;0.28;;;20.30;96.70;;;;;;4933074;28;20536;-71
2023/05/18 08:36:37;;;;;;;0.30;0.20;;;20.40;96.70;;;;;;4965322;28;20051;-71
2023/05/18 08:39:05;;;;;;;1.02;0.40;;;20.50;96.70;;;;;;4972739;28;20046;-71
2023/05/18 08:41:39;;;;;;;1.80;0.57;;;20.40;96.70;;;;;;4969477;28;20505;-71
2023/05/18 08:44:13;;;;;;;0.82;0.20;;;20.30;96.70;;;;;;4975350;28;20054;-71
2023/05/18 08:46:47;;;;;;;1.65;0.20;;;20.30;96.70;;;;;;4973543;28;20057;-73
2023/05/18 08:49:18;;;;;;;0.70;0.40;;;20.50;96.70;;;;;;4938965;28;20061;-71
2023/05/18 08:51:47;;;;;;;4.38;0.50;;;20.70;96.70;;;;;;4942854;28;20046;-70
2023/05/18 08:54:20;;;;;;;0.98;0.30;;;20.80;96.70;;;;;;4967037;28;20057;-71
2023/05/18 08:56:48;;;;;;;0.65;0.40;;;20.90;96.70;;;;;;4955740;28;20047;-71
2023/05/18 08:59:22;;;;;;;0.98;0.30;;;21.10;96.70;;;;;;4974781;28;20070;-71
2023/05/18 09:01:51;;;;;;;1.13;0.22;;;21.30;96.70;;;;;;4971059;28;20050;-71
2023/05/18 09:04:22;;;;;;;0.40;0.30;;;21.20;96.70;;;;;;4978855;28;20046;-71
2023/05/18 09:06:53;;;;;;;2.78;0.45;;;21.20;96.70;;;;;;4958099;28;20054;-71
2023/05/18 09:09:23;;;;;;;1.00;0.40;;;21.30;96.70;;;;;;4963425;28;20051;-71
2023/05/18 09:11:51;;;;;;;1.58;0.40;;;21.30;96.70;;;;;;4957124;28;20480;-71
2023/05/18 09:14:24;;;;;;;1.25;0.40;;;21.20;96.70;;;;;;4965326;28;20043;-71
2023/05/18 09:16:53;;;;;;;1.20;0.40;;;21.20;96.70;;;;;;4961169;28;20112;-71
2023/05/18 09:19:23;;;;;;;3.13;0.30;;;21.40;96.70;;;;;;4974718;28;20042;-72
2023/05/18 09:21:52;;;;;;;0.73;0.40;;;21.60;96.70;;;;;;4955430;28;20057;-71
2023/05/18 09:24:21;;;;;;;1.10;0.32;;;21.70;96.70;;;;;;4948762;28;20068;-72
2023/05/18 09:26:52;;;;;;;1.00;0.43;;;21.80;96.70;;;;;;4964790;28;20062;-71
2023/05/18 09:29:21;;;;;;;1.08;0.35;;;21.80;96.70;;;;;;4970781;28;20078;-72
2023/05/18 09:31:50;;;;;;;1.98;0.50;;;21.80;96.70;;;;;;4972800;28;20158;-72
2023/05/18 09:34:20;;;;;;;0.77;0.40;;;21.80;96.70;;;;;;4980485;28;20049;-70
2023/05/18 09:36:55;;;;;;;0.70;0.30;;;21.80;96.70;;;;;;4947288;28;20173;-70
2023/05/18 09:39:24;;;;;;;1.20;0.40;;;21.90;96.70;;;;;;4954446;28;20055;-71
2023/05/18 09:41:56;;;;;;;2.03;0.50;;;22.00;96.70;;;;;;4971598;28;20442;-71
2023/05/18 09:44:31;;;;;;;0.95;0.50;;;22.10;96.70;;;;;;4964973;28;20055;-71
2023/05/18 09:46:59;;;;;;;1.73;0.40;;;22.10;96.70;;;;;;4968956;28;20070;-71
2023/05/18 09:49:29;;;;;;;2.47;0.50;;;22.30;96.70;;;;;;4981046;28;20077;-71
2023/05/18 09:51:59;;;;;;;4.30;0.75;;;22.30;96.70;;;;;;4955175;28;20666;-71
2023/05/18 09:54:28;;;;;;;1.38;0.30;;;22.30;96.70;;;;;;4957187;28;20120;-71
2023/05/18 09:56:57;;;;;;;0.77;0.30;;;22.20;96.70;;;;;;4976649;28;20053;-72
2023/05/18 09:59:38;;;;;;;1.45;0.32;;;22.20;96.70;;;;;;4952251;28;20073;-71
2023/05/18 10:02:07;;;;;;;0.70;0.35;;;22.20;96.70;;;;;;4955462;28;20046;-70
2023/05/18 10:04:37;;;;;;;1.45;0.43;;;22.30;96.70;;;;;;4974814;28;20039;-72
2023/05/18 10:07:11;;;;;;;1.38;0.45;;;22.30;96.70;;;;;;4977378;28;20624;-71
2023/05/18 10:09:41;;;;;;;1.95;0.50;;;22.40;96.70;;;;;;4951628;28;20125;-71
2023/05/18 10:12:13;;;;;;;1.13;0.35;;;22.30;96.70;;;;;;4979144;28;20504;-71
2023/05/18 10:14:43;;;;;;;0.73;0.20;;;22.30;96.70;;;;;;4983871;28;20054;-72
2023/05/18 10:17:12;;;;;;;1.75;0.40;;;22.40;96.70;;;;;;4967863;28;20046;-72
2023/05/18 10:19:45;;;;;;;1.63;0.50;;;22.40;96.70;;;;;;4975008;28;20117;-71
2023/05/18 10:22:18;;;;;;;0.80;0.30;;;22.30;96.70;;;;;;4967326;28;20047;-72
2023/05/18 10:24:53;;;;;;;0.40;0.28;;;22.50;96.70;;;;;;4954791;28;20467;-71
2023/05/18 10:27:26;;;;;;;0.80;0.30;;;22.80;96.70;;;;;;4936337;28;20069;-71
2023/05/18 10:29:57;;;;;;;2.50;0.32;;;23.00;96.70;;;;;;4978216;28;20047;-71
2023/05/18 10:32:28;;;;;;;1.15;0.30;;;23.20;96.70;;;;;;4982130;28;20050;-71
2023/05/18 10:34:58;;;;;;;0.82;0.30;;;23.20;96.70;;;;;;4974834;28;20650;-71
2023/05/18 10:37:30;;;;;;;1.17;0.38;;;23.50;96.70;;;;;;4950679;28;20564;-71
2023/05/18 10:40:00;;;;;;;1.20;0.20;;;23.40;96.70;;;;;;4960149;28;20050;-72
2023/05/18 10:42:32;;;;;;;0.50;0.32;;;23.50;96.70;;;;;;4961904;28;20130;-72
2023/05/18 10:45:01;;;;;;;1.08;0.45;;;23.60;96.70;;;;;;4953602;28;20046;-71
2023/05/18 10:47:32;;;;;;;1.38;0.20;;;23.70;96.70;;;;;;4975889;28;20552;-70
2023/05/18 10:50:03;;;;;;;1.20;0.40;;;23.50;96.70;;;;;;4977090;28;20586;-71
2023/05/18 10:52:35;;;;;;;0.70;0.38;;;23.60;96.70;;;;;;4966543;28;20068;-70
2023/05/18 10:55:05;;;;;;;0.75;0.25;;;23.70;96.70;;;;;;4945822;28;20043;-71
2023/05/18 10:57:38;;;;;;;0.90;0.40;;;23.90;96.70;;;;;;4981277;28;20107;-71
2023/05/18 11:00:08;;;;;;;2.95;0.43;;;24.00;96.70;;;;;;4939600;28;20062;-71
2023/05/18 11:03:03;;;;;;;2.53;0.52;;;23.90;96.70;;;;;;4957175;28;20063;-72
2023/05/18 11:06:07;;;;;;;3.40;0.47;;;23.70;96.70;;;;;;4938462;28;20520;-73
2023/05/18 11:09:50;;;;;;;1.10;0.30;;;23.80;96.70;;;;;;4920731;29;20174;-71
2023/05/18 11:13:31;;;;;;;0.98;0.20;;;23.30;96.70;;;;;;4886113;29;20516;-72
2023/05/18 11:16:33;;;;;;;0.73;0.30;;;23.40;96.70;;;;;;4846574;29;20504;-71
2023/05/18 11:19:05;;;;;;;1.02;0.30;;;23.80;96.70;;;;;;4855394;29;20065;-71
2023/05/18 11:21:53;;;;;;;3.63;0.75;;;24.00;96.70;;;;;;4853176;29;20053;-71
2023/05/18 11:24:23;;;;;;;1.25;0.25;;;24.10;96.70;;;;;;4862648;29;20140;-71
2023/05/18 11:26:54;;;;;;;0.47;0.25;;;23.70;96.70;;;;;;4861052;29;20136;-71
2023/05/18 11:29:29;;;;;;;1.15;0.38;;;23.70;96.70;;;;;;4869969;29;20056;-73
2023/05/18 11:31:58;;;;;;;2.50;0.30;;;23.70;96.70;;;;;;4864284;29;20144;-70
2023/05/18 11:34:46;;;;;;;0.60;0.30;;;24.00;96.70;;;;;;4851995;29;20080;-71
2023/05/18 11:37:16;;;;;;;0.80;0.30;;;24.00;96.70;;;;;;4860617;29;20064;-71
2023/05/18 11:39:54;;;;;;;0.50;0.20;;;23.80;96.70;;;;;;4849368;29;20068;-73
2023/05/18 11:42:36;;;;;;;0.93;0.20;;;23.90;96.70;;;;;;4860008;29;20057;-73
2023/05/18 11:45:09;;;;;;;0.30;0.28;;;23.50;96.70;;;;;;4863162;29;20052;-73
2023/05/18 11:47:39;;;;;;;1.38;0.20;;;23.30;96.70;;;;;;4896228;29;20741;-72
2023/05/18 11:50:10;;;;;;;1.05;0.30;;;23.40;96.70;;;;;;4888223;29;20056;-72
2023/05/18 11:52:46;;;;;;;0.57;0.30;;;23.60;96.70;;;;;;4877318;29;20053;-72
2023/05/18 11:55:17;;;;;;;2.13;0.40;;;23.70;96.70;;;;;;4892693;29;20060;-71
2023/05/18 11:57:50;;;;;;;1.42;0.20;;;24.10;96.70;;;;;;4919205;29;20291;-73
2023/05/18 12:00:20;;;;;;;2.65;0.40;;;24.50;96.70;;;;;;4927965;29;20107;-73
2023/05/18 12:02:51;;;;;;;2.03;0.40;;;24.70;96.70;;;;;;4927235;29;20043;-72
2023/05/18 12:05:20;;;;;;;0.40;0.20;;;24.40;96.70;;;;;;4932188;29;20067;-71
2023/05/18 12:07:53;;;;;;;1.00;0.32;;;24.70;96.70;;;;;;4938417;29;20230;-72
2023/05/18 12:10:22;;;;;;;1.80;0.30;;;25.20;96.70;;;;;;4912701;29;20043;-71
2023/05/18 12:12:52;;;;;;;1.48;0.40;;;25.20;96.70;;;;;;4929859;29;20158;-73
2023/05/18 12:15:22;;;;;;;1.80;0.30;;;25.10;96.70;;;;;;4922472;28;20520;-72
2023/05/18 12:17:51;;;;;;;1.30;0.30;;;24.80;96.70;;;;;;4956757;28;20043;-72
2023/05/18 12:20:21;;;;;;;0.73;0.20;;;24.60;96.70;;;;;;4978458;28;20053;-72
2023/05/18 12:22:52;;;;;;;1.70;0.30;;;24.70;96.70;;;;;;4980987;28;20034;-71
2023/05/18 12:25:22;;;;;;;0.43;0.20;;;24.60;96.70;;;;;;4973468;28;20050;-73
2023/05/18 12:27:53;;;;;;;0.65;0.22;;;24.90;96.70;;;;;;4957153;28;20113;-71
2023/05/18 12:30:24;;;;;;;1.30;0.40;;;24.90;96.70;;;;;;4961826;28;20071;-71
2023/05/18 12:32:54;;;;;;;0.77;0.30;;;25.00;96.70;;;;;;4952528;28;20038;-73
2023/05/18 12:35:24;;;;;;;1.10;0.30;;;25.00;96.70;;;;;;4971760;28;20105;-71
2023/05/18 12:38:00;;;;;;;0.70;0.38;;;25.20;96.70;;;;;;4947274;28;20476;-71
2023/05/18 12:40:45;;;;;;;2.35;0.50;;;25.30;96.70;;;;;;4967504;28;20053;-72
2023/05/18 12:43:15;;;;;;;2.00;0.20;;;25.10;96.70;;;;;;4973328;28;20077;-71
2023/05/18 12:45:44;;;;;;;0.10;0.10;;;25.20;96.70;;;;;;4973258;28;20050;-71
2023/05/18 12:48:13;;;;;;;1.42;0.30;;;25.50;96.70;;;;;;4975446;28;20045;-72
2023/05/18 12:50:46;;;;;;;1.42;0.28;;;25.60;96.70;;;;;;4962648;28;20050;-73
2023/05/18 12:53:15;;;;;;;0.60;0.30;;;25.60;96.70;;;;;;4963582;28;20194;-71
2023/05/18 12:55:44;;;;;;;1.20;0.40;;;25.90;96.70;;;;;;4965240;28;20536;-73
2023/05/18 12:58:16;;;;;;;0.52;0.20;;;25.90;96.70;;;;;;4971963;28;20049;-72
2023/05/18 13:00:47;;;;;;;0.93;0.35;;;26.20;96.70;;;;;;4948661;28;20046;-70
2023/05/18 13:03:18;;;;;;;0.98;0.30;;;26.30;96.70;;;;;;4971482;28;20034;-71
2023/05/18 13:06:02;;;;;;;2.63;0.30;;;26.40;96.70;;;;;;4983460;28;20162;-71
2023/05/18 13:08:31;;;;;;;0.75;0.30;;;26.30;96.70;;;;;;4975082;28;20038;-70
2023/05/18 13:11:03;;;;;;;1.30;0.57;;;26.20;96.70;;;;;;4966320;28;20047;-70
2023/05/18 13:13:58;;;;;;;0.77;0.28;;;26.10;96.70;;;;;;4952786;28;20085;-70
2023/05/18 13:16:28;;;;;;;1.70;0.40;;;25.90;96.70;;;;;;4949930;28;20142;-71
2023/05/18 13:18:58;;;;;;;0.38;0.25;;;25.80;96.70;;;;;;4975505;28;20057;-71
2023/05/18 13:21:27;;;;;;;2.45;0.30;;;25.80;96.70;;;;;;4963208;28;20127;-71
2023/05/18 13:23:56;;;;;;;1.35;0.20;;;25.90;96.70;;;;;;4962120;28;20038;-71
2023/05/18 13:26:25;;;;;;;0.70;0.35;;;25.80;96.70;;;;;;4977073;28;20451;-70